Time;durP1;ratioP1;P1;durP2;ratioP2;P2;SDS_P1;SDS_P2;PMS_P1;PMS_P2;Temp;Humidity;BMP_temperature;BMP_pressure;BME280_temperature;BME280_humidity;BME280_pressure;Samples;Min_cycle;Max_cycle;Signal;HPM_P1;HPM_P2
2022/01/02 00:01:02;;;;;;;2.75;1.65;;;;;;;-2.69;60.90;98936.22;5091502;28;20047;-67
2022/01/02 00:03:54;;;;;;;3.50;2.15;;;;;;;-2.76;61.32;98946.09;5091424;28;20047;-65
2022/01/02 00:06:51;;;;;;;3.92;2.00;;;;;;;-2.75;61.57;98952.19;5091698;28;20054;-66
2022/01/02 00:09:37;;;;;;;3.78;2.28;;;;;;;-2.78;60.61;98950.53;5091949;28;20075;-65
2022/01/02 00:12:23;;;;;;;3.65;2.22;;;;;;;-2.77;60.86;98954.03;5091825;28;20043;-67
2022/01/02 00:15:09;;;;;;;4.78;2.25;;;;;;;-2.77;60.58;98962.72;5091441;28;20134;-68
2022/01/02 00:17:55;;;;;;;3.22;2.13;;;;;;;-2.82;60.10;98974.28;5090271;28;20558;-68
2022/01/02 00:20:48;;;;;;;2.65;1.77;;;;;;;-2.87;60.22;98956.16;5091897;28;20119;-66
2022/01/02 00:23:44;;;;;;;3.47;1.77;;;;;;;-2.95;58.78;98966.06;5091125;28;20062;-69
2022/01/02 00:26:39;;;;;;;2.50;1.33;;;;;;;-2.95;59.27;98964.31;5091147;28;20503;-68
2022/01/02 00:29:25;;;;;;;3.15;1.60;;;;;;;-3.04;59.30;98960.28;5091797;28;20063;-67
2022/01/02 00:32:11;;;;;;;2.45;1.50;;;;;;;-3.10;58.38;98960.53;5091908;28;20081;-68
2022/01/02 00:34:56;;;;;;;2.08;1.33;;;;;;;-3.13;59.42;98965.00;5091059;28;20098;-66
2022/01/02 00:37:41;;;;;;;3.10;1.50;;;;;;;-3.15;58.42;98965.06;5091360;28;20043;-68
2022/01/02 00:40:25;;;;;;;2.30;1.25;;;;;;;-3.16;58.71;98968.59;5091482;28;20397;-67
2022/01/02 00:43:13;;;;;;;1.75;1.10;;;;;;;-3.11;58.86;98974.53;5091141;28;20043;-66
2022/01/02 00:46:03;;;;;;;3.58;1.85;;;;;;;-3.12;59.05;98972.81;5090598;28;20104;-65
2022/01/02 00:48:55;;;;;;;2.25;1.48;;;;;;;-3.10;58.82;98971.00;5091219;28;20058;-69
2022/01/02 00:51:48;;;;;;;3.40;2.00;;;;;;;-3.06;58.93;98979.56;5091511;28;20101;-67
2022/01/02 00:54:33;;;;;;;2.45;1.50;;;;;;;-3.11;59.67;98978.91;5090784;28;20131;-67
2022/01/02 00:57:19;;;;;;;2.33;1.60;;;;;;;-3.05;59.87;98983.88;5090870;28;20039;-67
2022/01/02 01:00:13;;;;;;;3.22;1.80;;;;;;;-3.03;59.45;98982.94;5091308;28;20089;-66
2022/01/02 01:03:00;;;;;;;3.17;1.70;;;;;;;-3.04;60.44;98983.84;5090788;28;20042;-66
2022/01/02 01:05:45;;;;;;;3.03;1.85;;;;;;;-3.32;60.37;98956.09;5090563;28;20092;-66
2022/01/02 01:08:31;;;;;;;3.08;1.85;;;;;;;-3.12;60.52;98982.44;5091143;28;20496;-68
2022/01/02 01:11:15;;;;;;;2.67;1.83;;;;;;;-3.10;60.87;98980.59;5090845;28;20051;-67
2022/01/02 01:14:00;;;;;;;4.05;1.70;;;;;;;-3.11;60.67;98990.25;5090186;28;20046;-66
2022/01/02 01:16:45;;;;;;;2.95;1.58;;;;;;;-3.20;60.33;99006.28;5091936;28;20165;-65
2022/01/02 01:19:29;;;;;;;3.63;2.03;;;;;;;-3.21;59.65;99001.94;5094470;28;20047;-67
2022/01/02 01:22:13;;;;;;;3.50;1.83;;;;;;;-3.21;60.18;99010.66;5094800;28;20513;-67
2022/01/02 01:24:57;;;;;;;2.70;1.83;;;;;;;-3.29;59.78;99017.09;5094305;28;20401;-68
2022/01/02 01:27:42;;;;;;;2.03;1.70;;;;;;;-3.37;59.83;99014.75;5094708;28;20035;-64
2022/01/02 01:30:28;;;;;;;2.70;2.10;;;;;;;-3.41;59.74;99021.84;5094404;28;20416;-66
2022/01/02 01:33:12;;;;;;;2.25;1.85;;;;;;;-3.38;60.11;99020.91;5093197;28;20090;-66
2022/01/02 01:35:56;;;;;;;3.22;2.08;;;;;;;-3.44;60.63;99024.59;5094166;28;20151;-68
2022/01/02 01:38:39;;;;;;;3.08;2.10;;;;;;;-3.42;60.53;99033.25;5093925;28;20055;-67
2022/01/02 01:41:29;;;;;;;3.75;1.80;;;;;;;-3.43;60.29;99028.91;5094201;28;20058;-67
2022/01/02 01:46:58;;;;;;;2.17;1.73;;;;;;;-3.55;60.60;99022.34;5093517;28;20396;-66
2022/01/02 01:49:42;;;;;;;3.17;2.00;;;;;;;-3.57;60.28;99024.19;5094256;28;20105;-65
2022/01/02 01:52:26;;;;;;;2.40;1.67;;;;;;;-3.61;60.31;99025.19;5093669;28;20042;-69
2022/01/02 01:55:11;;;;;;;2.55;1.80;;;;;;;-3.62;60.09;99026.97;5093925;28;20140;-68
2022/01/02 01:57:55;;;;;;;2.55;1.92;;;;;;;-3.68;60.28;99021.94;5094285;28;20043;-66
2022/01/02 02:00:39;;;;;;;4.35;1.92;;;;;;;-3.66;60.33;99012.28;5093664;28;20043;-67
2022/01/02 02:03:23;;;;;;;3.65;2.00;;;;;;;-3.55;60.17;99032.81;5093279;28;20047;-68
2022/01/02 02:06:07;;;;;;;2.22;1.83;;;;;;;-3.51;60.36;99021.34;5093971;28;20097;-68
2022/01/02 02:08:54;;;;;;;1.90;1.40;;;;;;;-3.44;59.69;99031.59;5093709;28;20526;-68
2022/01/02 02:11:39;;;;;;;2.70;2.15;;;;;;;-3.38;59.54;99034.81;5093448;28;20389;-66
2022/01/02 02:14:24;;;;;;;2.53;1.92;;;;;;;-3.51;59.39;99023.09;5093790;28;20042;-67
2022/01/02 02:17:08;;;;;;;3.42;2.13;;;;;;;-3.52;60.32;99044.97;5093891;28;20046;-66
2022/01/02 02:19:57;;;;;;;3.35;1.95;;;;;;;-3.53;60.19;99027.56;5093142;28;20069;-66
2022/01/02 02:22:46;;;;;;;2.47;1.70;;;;;;;-3.51;59.84;99044.88;5092966;28;20587;-66
2022/01/02 02:25:35;;;;;;;4.40;1.80;;;;;;;-3.46;59.69;99047.34;5093844;28;20043;-67
2022/01/02 02:28:25;;;;;;;2.03;1.70;;;;;;;-3.46;60.41;99055.19;5093054;28;20093;-67
2022/01/02 02:31:09;;;;;;;2.20;2.00;;;;;;;-3.47;60.15;99056.09;5091920;28;20039;-68
2022/01/02 02:33:53;;;;;;;2.47;1.75;;;;;;;-3.56;60.47;99038.13;5093332;28;20431;-66
2022/01/02 02:36:37;;;;;;;2.92;2.00;;;;;;;-3.50;60.46;99051.00;5093498;28;20047;-68
2022/01/02 02:39:21;;;;;;;1.75;1.55;;;;;;;-3.49;60.41;99057.94;5092917;28;20433;-68
2022/01/02 02:42:13;;;;;;;3.70;2.00;;;;;;;-3.66;60.68;99025.34;5092877;28;20499;-67
2022/01/02 02:51:26;;;;;;;3.60;1.77;;;;;;;-3.40;60.58;99077.69;5092877;28;20123;-67
2022/01/02 02:54:23;;;;;;;4.25;2.17;;;;;;;-3.42;60.25;99080.34;5092942;28;20142;-66
2022/01/02 02:57:12;;;;;;;4.40;1.88;;;;;;;-3.45;60.20;99083.06;5093053;28;20181;-66
2022/01/02 02:59:56;;;;;;;3.20;1.98;;;;;;;-3.51;60.20;99085.91;5092604;28;20047;-66
2022/01/02 03:02:40;;;;;;;3.58;2.22;;;;;;;-3.50;59.98;99104.16;5092316;28;20382;-67
2022/01/02 03:05:24;;;;;;;2.70;1.98;;;;;;;-3.57;59.80;99086.97;5093002;28;20043;-66
2022/01/02 03:08:08;;;;;;;3.10;2.20;;;;;;;-3.66;59.78;99103.84;5092135;28;20038;-66
2022/01/02 03:10:52;;;;;;;3.95;1.95;;;;;;;-3.72;59.79;99104.06;5092000;28;20035;-66
2022/01/02 03:13:36;;;;;;;2.95;1.90;;;;;;;-3.91;60.34;99081.13;5092183;28;20546;-66
2022/01/02 03:16:20;;;;;;;3.05;2.00;;;;;;;-3.71;60.27;99116.22;5092227;28;20047;-69
2022/01/02 03:19:04;;;;;;;5.00;1.80;;;;;;;-3.71;60.19;99126.69;5091811;28;20055;-66
2022/01/02 03:21:48;;;;;;;4.27;1.97;;;;;;;-3.71;60.13;99126.69;5092261;28;20520;-68
2022/01/02 03:24:32;;;;;;;3.92;1.88;;;;;;;-3.72;59.87;99138.06;5092230;28;20783;-67
2022/01/02 03:27:16;;;;;;;2.30;1.65;;;;;;;-3.70;60.10;99117.09;5091896;28;20473;-66
2022/01/02 03:30:02;;;;;;;4.22;2.20;;;;;;;-3.69;59.31;99124.88;5092330;28;20552;-68
2022/01/02 03:32:46;;;;;;;3.10;1.98;;;;;;;-3.68;59.71;99129.19;5091833;28;20092;-67
2022/01/02 03:35:30;;;;;;;3.63;1.60;;;;;;;-3.70;59.37;99131.00;5091622;28;20043;-66
2022/01/02 03:38:14;;;;;;;2.60;1.63;;;;;;;-3.67;59.01;99146.59;5092019;28;20488;-66
2022/01/02 03:40:59;;;;;;;2.75;1.65;;;;;;;-3.68;59.08;99150.13;5091349;28;20539;-66
2022/01/02 03:43:43;;;;;;;2.95;1.52;;;;;;;-3.71;58.46;99138.94;5091436;28;20051;-65
2022/01/02 03:46:27;;;;;;;2.33;1.73;;;;;;;-3.72;58.46;99151.16;5091990;28;20498;-66
2022/01/02 03:49:11;;;;;;;3.38;1.65;;;;;;;-3.71;58.47;99146.78;5091536;28;20097;-67
2022/01/02 03:51:56;;;;;;;4.47;1.60;;;;;;;-3.75;58.29;99125.94;5091868;28;20049;-68
2022/01/02 03:54:41;;;;;;;1.47;1.23;;;;;;;-3.72;59.06;99150.31;5092059;28;20046;-66
2022/01/02 03:57:25;;;;;;;3.25;1.77;;;;;;;-3.73;58.44;99159.91;5091482;28;20305;-67
2022/01/02 04:00:12;;;;;;;2.85;1.58;;;;;;;-3.72;58.53;99140.69;5091677;28;20126;-66
2022/01/02 04:02:56;;;;;;;3.20;1.55;;;;;;;-3.73;58.52;99153.84;5091852;28;20120;-65
2022/01/02 04:05:39;;;;;;;6.50;1.48;;;;;;;-3.75;58.34;99151.25;5091137;28;20090;-67
2022/01/02 04:08:23;;;;;;;2.13;1.08;;;;;;;-3.85;58.04;99160.31;5090396;28;20035;-67
2022/01/02 04:11:07;;;;;;;4.60;1.58;;;;;;;-3.93;58.08;99164.00;5092067;28;20116;-67
2022/01/02 04:13:51;;;;;;;2.58;1.55;;;;;;;-3.99;57.48;99161.59;5091476;28;20043;-70
2022/01/02 04:16:35;;;;;;;1.42;1.20;;;;;;;-4.00;58.12;99178.19;5090876;28;20097;-68
2022/01/02 04:19:19;;;;;;;3.28;1.60;;;;;;;-3.96;58.06;99179.81;5091550;28;20526;-67
2022/01/02 04:22:03;;;;;;;5.75;1.77;;;;;;;-3.97;58.09;99188.56;5091568;28;20492;-67
2022/01/02 04:24:49;;;;;;;3.92;1.48;;;;;;;-3.94;57.95;99177.16;5091050;28;20094;-68
2022/01/02 04:27:33;;;;;;;2.15;1.48;;;;;;;-3.91;57.84;99187.50;5091077;28;20381;-68
2022/01/02 04:30:17;;;;;;;3.17;1.42;;;;;;;-3.92;57.81;99202.34;5091636;28;20039;-63
2022/01/02 04:33:01;;;;;;;3.72;1.80;;;;;;;-3.90;58.86;99205.75;5091537;28;20067;-68
2022/01/02 04:35:45;;;;;;;3.90;1.75;;;;;;;-3.94;59.30;99193.69;5091000;28;20039;-68
2022/01/02 04:38:29;;;;;;;2.67;1.70;;;;;;;-3.87;59.53;99206.56;5091191;28;20125;-66
2022/01/02 04:41:13;;;;;;;2.25;1.58;;;;;;;-3.98;59.49;99197.31;5091618;28;20050;-66
2022/01/02 04:43:57;;;;;;;3.20;1.17;;;;;;;-3.92;60.22;99210.19;5090748;28;20096;-67
2022/01/02 04:46:41;;;;;;;3.90;1.70;;;;;;;-3.93;60.33;99212.84;5090562;28;20441;-68
2022/01/02 04:49:25;;;;;;;4.07;1.67;;;;;;;-4.07;60.80;99194.97;5091526;28;20495;-67
2022/01/02 04:52:09;;;;;;;2.55;1.80;;;;;;;-4.12;60.41;99204.69;5095128;28;20097;-68
2022/01/02 04:54:53;;;;;;;3.97;2.03;;;;;;;-4.18;60.72;99211.84;5095698;28;20039;-67
2022/01/02 04:57:37;;;;;;;4.03;1.92;;;;;;;-4.39;60.62;99187.19;5094714;28;20097;-65
2022/01/02 05:00:21;;;;;;;2.50;1.85;;;;;;;-4.29;60.75;99197.38;5095076;28;20157;-66
2022/01/02 05:03:04;;;;;;;5.60;2.08;;;;;;;-4.26;61.04;99212.97;5094471;28;20065;-67
2022/01/02 05:05:48;;;;;;;6.07;2.20;;;;;;;-4.30;60.43;99203.50;5095278;28;20083;-68
2022/01/02 05:08:32;;;;;;;2.97;1.80;;;;;;;-4.34;60.73;99202.72;5094993;28;20058;-68
2022/01/02 05:11:17;;;;;;;5.35;1.98;;;;;;;-4.30;59.75;99214.81;5094790;28;20040;-68
2022/01/02 05:14:01;;;;;;;4.45;1.67;;;;;;;-4.45;59.60;99207.44;5094641;28;20089;-65
2022/01/02 05:16:45;;;;;;;2.92;1.50;;;;;;;-4.62;59.32;99209.63;5094589;28;20134;-67
2022/01/02 05:19:29;;;;;;;4.18;1.83;;;;;;;-4.77;59.95;99218.75;5094615;28;20126;-67
2022/01/02 05:22:13;;;;;;;4.07;1.73;;;;;;;-4.93;59.74;99226.16;5094610;28;20166;-68
2022/01/02 05:24:57;;;;;;;3.55;1.70;;;;;;;-5.07;60.15;99221.25;5095009;28;20397;-68
2022/01/02 05:27:41;;;;;;;2.50;1.67;;;;;;;-5.13;60.25;99231.88;5094332;28;20536;-66
2022/01/02 05:30:26;;;;;;;3.13;1.88;;;;;;;-5.21;60.09;99226.00;5095001;28;20081;-66
2022/01/02 05:33:13;;;;;;;3.15;1.75;;;;;;;-5.19;60.42;99234.66;5094595;28;20039;-66
2022/01/02 05:35:57;;;;;;;2.38;1.55;;;;;;;-5.14;60.19;99243.22;5094470;28;20089;-67
2022/01/02 05:38:41;;;;;;;1.85;1.25;;;;;;;-5.14;60.30;99235.38;5094172;28;20043;-66
2022/01/02 05:41:27;;;;;;;6.95;2.38;;;;;;;-5.00;59.98;99249.84;5094844;28;20547;-66
2022/01/02 05:44:11;;;;;;;5.78;2.30;;;;;;;-5.02;60.04;99243.81;5094074;28;20054;-66
2022/01/02 05:46:55;;;;;;;5.53;2.53;;;;;;;-4.96;59.89;99264.53;5094246;28;20127;-65
2022/01/02 05:49:39;;;;;;;5.32;2.63;;;;;;;-4.92;60.16;99276.59;5094228;28;20054;-66
2022/01/02 05:52:23;;;;;;;5.22;2.20;;;;;;;-4.91;60.38;99271.34;5093803;28;20043;-68
2022/01/02 05:55:07;;;;;;;6.65;2.40;;;;;;;-4.86;60.07;99283.44;5093562;28;20075;-67
2022/01/02 05:57:51;;;;;;;7.82;2.38;;;;;;;-4.80;60.31;99291.09;5094247;28;20055;-65
2022/01/02 06:00:35;;;;;;;5.30;2.17;;;;;;;-4.82;60.09;99296.38;5093832;28;20039;-69
2022/01/02 06:03:19;;;;;;;4.97;2.63;;;;;;;-4.82;60.40;99285.94;5092530;28;20177;-72
2022/01/02 06:06:03;;;;;;;3.22;1.95;;;;;;;-4.82;60.35;99285.94;5094228;28;20039;-69
2022/01/02 06:08:47;;;;;;;7.03;2.50;;;;;;;-4.79;60.33;99287.59;5094033;28;20380;-70
2022/01/02 06:11:31;;;;;;;7.15;2.40;;;;;;;-4.82;60.05;99291.16;5093583;28;20097;-62
2022/01/02 06:14:17;;;;;;;7.18;2.05;;;;;;;-4.73;60.47;99305.69;5093871;28;20543;-69
2022/01/02 06:17:00;;;;;;;4.43;2.00;;;;;;;-4.77;60.13;99299.72;5087676;28;20442;-68
2022/01/02 06:19:44;;;;;;;2.20;1.70;;;;;;;-4.82;60.76;99301.59;5080024;28;20063;-66
2022/01/02 06:22:28;;;;;;;2.55;1.65;;;;;;;-4.85;60.62;99295.59;5081109;28;20044;-68
2022/01/02 06:25:12;;;;;;;3.65;2.00;;;;;;;-4.84;60.89;99303.38;5081057;28;20043;-67
2022/01/02 06:27:56;;;;;;;3.88;2.42;;;;;;;-4.83;61.03;99306.84;5083755;28;20450;-67
2022/01/02 06:30:41;;;;;;;4.43;2.00;;;;;;;-4.90;61.46;99301.78;5078805;28;20035;-67
2022/01/02 06:33:25;;;;;;;5.53;2.10;;;;;;;-4.92;61.73;99310.56;5080159;28;20048;-66
2022/01/02 06:36:09;;;;;;;3.13;2.05;;;;;;;-4.95;61.78;99308.03;5081755;28;20146;-65
2022/01/02 06:38:53;;;;;;;3.83;2.20;;;;;;;-5.00;61.91;99310.72;5087193;28;20039;-69
2022/01/02 06:41:36;;;;;;;2.95;2.00;;;;;;;-5.01;62.10;99313.41;5075194;28;20089;-64
2022/01/02 06:44:20;;;;;;;4.78;2.00;;;;;;;-4.99;61.75;99316.84;5073080;28;20035;-66
2022/01/02 06:47:05;;;;;;;4.15;1.95;;;;;;;-5.13;61.82;99283.25;5072963;28;20453;-67
2022/01/02 06:49:49;;;;;;;4.75;1.80;;;;;;;-5.13;61.70;99281.47;5073734;28;20130;-65
2022/01/02 06:52:33;;;;;;;5.50;2.38;;;;;;;-5.10;61.26;99286.59;5081916;28;20048;-66
2022/01/02 06:55:17;;;;;;;8.70;2.70;;;;;;;-4.88;61.04;99320.00;5083341;28;20089;-68
2022/01/02 06:58:02;;;;;;;5.07;2.28;;;;;;;-4.81;61.00;99311.16;5078552;28;20397;-67
2022/01/02 07:00:46;;;;;;;4.13;2.03;;;;;;;-4.79;60.74;99311.97;5079935;28;20085;-66
2022/01/02 07:03:31;;;;;;;3.72;1.83;;;;;;;-4.79;60.87;99314.56;5080789;28;20079;-67
2022/01/02 07:06:15;;;;;;;6.15;2.10;;;;;;;-4.76;61.21;99324.06;5082019;28;20035;-66
2022/01/02 07:08:59;;;;;;;3.20;1.35;;;;;;;-4.68;60.31;99318.66;5091760;28;20039;-70
2022/01/02 07:11:43;;;;;;;2.53;1.50;;;;;;;-4.93;59.98;99277.50;5082780;28;20090;-71
2022/01/02 07:14:27;;;;;;;3.20;1.50;;;;;;;-4.74;59.83;99305.75;5070670;28;20059;-68
2022/01/02 07:17:11;;;;;;;3.97;1.50;;;;;;;-4.88;59.84;99282.63;5088914;28;20027;-70
2022/01/02 07:19:55;;;;;;;2.22;1.25;;;;;;;-4.67;59.64;99323.84;5082242;28;20082;-70
2022/01/02 07:22:42;;;;;;;3.78;1.48;;;;;;;-4.69;60.00;99315.19;5072016;28;20083;-69
2022/01/02 07:25:26;;;;;;;4.18;2.03;;;;;;;-4.53;59.84;99327.81;5071797;28;20072;-68
2022/01/02 07:28:11;;;;;;;4.70;1.48;;;;;;;-4.51;59.73;99336.47;5072380;28;20085;-70
2022/01/02 07:30:55;;;;;;;3.28;1.48;;;;;;;-4.49;60.41;99338.16;5071660;28;20468;-68
2022/01/02 07:33:39;;;;;;;3.40;1.50;;;;;;;-4.40;60.03;99330.97;5071608;28;20047;-69
2022/01/02 07:36:23;;;;;;;4.85;1.67;;;;;;;-4.38;59.92;99334.38;5072192;28;20159;-66
2022/01/02 07:39:07;;;;;;;3.38;1.38;;;;;;;-4.34;59.76;99333.41;5071825;28;20067;-68
2022/01/02 07:41:51;;;;;;;2.72;1.60;;;;;;;-4.35;59.25;99350.00;5071670;28;20047;-70
2022/01/02 07:44:37;;;;;;;3.72;1.63;;;;;;;-4.32;59.32;99342.94;5072392;28;20456;-69
2022/01/02 07:47:21;;;;;;;2.28;1.33;;;;;;;-4.34;58.71;99349.09;5071400;28;20520;-70
2022/01/02 07:50:05;;;;;;;4.35;2.35;;;;;;;-4.25;59.23;99359.31;5071302;28;20386;-69
2022/01/02 07:52:52;;;;;;;5.45;1.90;;;;;;;-4.21;59.34;99357.47;5071871;28;20070;-69
2022/01/02 07:55:35;;;;;;;3.83;1.40;;;;;;;-4.13;58.45;99365.09;5071681;28;20047;-69
2022/01/02 07:58:19;;;;;;;1.83;1.33;;;;;;;-3.96;58.53;99370.72;5070251;28;20056;-64
2022/01/02 08:01:03;;;;;;;3.75;1.60;;;;;;;-4.03;58.57;99358.72;5069707;28;20031;-72
2022/01/02 08:03:47;;;;;;;2.53;1.50;;;;;;;-3.92;58.62;99374.94;5068597;28;20047;-68
2022/01/02 08:06:31;;;;;;;5.88;1.90;;;;;;;-3.82;58.58;99369.47;5068779;28;20036;-71
2022/01/02 08:09:15;;;;;;;2.83;1.40;;;;;;;-3.83;57.45;99344.22;5068452;28;20035;-69
2022/01/02 08:11:59;;;;;;;5.75;1.30;;;;;;;-3.54;56.94;99368.66;5068358;28;20040;-72
2022/01/02 08:14:43;;;;;;;2.50;1.42;;;;;;;-3.49;56.85;99362.38;5068791;28;20043;-70
2022/01/02 08:17:27;;;;;;;3.53;1.65;;;;;;;-3.33;57.01;99383.72;5069669;28;20039;-72
2022/01/02 08:20:11;;;;;;;2.42;1.60;;;;;;;-3.20;56.83;99399.91;5070237;28;20093;-68
2022/01/02 08:22:56;;;;;;;1.80;1.33;;;;;;;-3.06;55.28;99395.97;5070370;28;20055;-71
2022/01/02 08:25:40;;;;;;;4.35;1.48;;;;;;;-3.06;55.73;99391.59;5069434;28;20098;-72
2022/01/02 08:28:25;;;;;;;2.47;1.25;;;;;;;-3.05;55.26;99392.44;5070544;28;20533;-76
2022/01/02 08:31:09;;;;;;;4.20;1.60;;;;;;;-3.13;55.45;99387.47;5070527;28;20265;-65
2022/01/02 08:33:54;;;;;;;2.72;1.30;;;;;;;-3.19;56.05;99391.13;5070943;28;20043;-64
2022/01/02 08:36:38;;;;;;;1.95;1.30;;;;;;;-3.20;55.57;99389.41;5071011;28;20035;-66
2022/01/02 08:39:22;;;;;;;4.30;1.30;;;;;;;-3.13;55.99;99395.34;5075858;28;20146;-68
2022/01/02 08:42:06;;;;;;;5.05;1.55;;;;;;;-3.07;55.58;99392.50;5081372;28;20055;-68
2022/01/02 08:44:50;;;;;;;3.72;1.48;;;;;;;-3.05;55.08;99395.94;5076617;28;20458;-66
2022/01/02 08:47:35;;;;;;;3.97;1.58;;;;;;;-3.30;56.21;99384.50;5077901;28;20040;-67
2022/01/02 08:50:20;;;;;;;3.45;1.50;;;;;;;-3.36;55.77;99394.28;5079015;28;20118;-70
2022/01/02 08:53:03;;;;;;;4.28;1.35;;;;;;;-3.51;56.10;99395.56;5080281;28;20132;-68
2022/01/02 08:55:47;;;;;;;3.42;1.30;;;;;;;-3.65;56.29;99388.13;5080525;28;20550;-68
2022/01/02 08:58:31;;;;;;;4.25;1.67;;;;;;;-3.95;56.03;99355.88;5076833;28;20102;-70
2022/01/02 09:01:15;;;;;;;3.72;1.33;;;;;;;-3.77;56.24;99396.34;5077653;28;20124;-67
2022/01/02 09:03:59;;;;;;;3.53;1.75;;;;;;;-3.77;56.02;99381.50;5076222;28;20082;-65
2022/01/02 09:06:43;;;;;;;5.53;2.25;;;;;;;-4.02;55.83;99352.59;5079609;28;20043;-62
2022/01/02 09:09:28;;;;;;;3.47;1.70;;;;;;;-3.72;55.84;99381.38;5080755;28;20051;-61
2022/01/02 09:12:14;;;;;;;2.53;1.63;;;;;;;-3.62;55.83;99382.84;5073370;28;20079;-62
2022/01/02 09:14:58;;;;;;;2.28;1.75;;;;;;;-3.64;55.84;99378.53;5070216;28;20067;-62
2022/01/02 09:17:42;;;;;;;4.72;1.90;;;;;;;-3.79;56.36;99379.84;5070217;28;20132;-65
2022/01/02 09:20:27;;;;;;;4.53;1.80;;;;;;;-3.98;55.75;99362.06;5069370;28;20047;-70
2022/01/02 09:23:11;;;;;;;2.50;1.13;;;;;;;-3.87;55.31;99374.81;5070540;28;20047;-69
2022/01/02 09:25:56;;;;;;;5.93;1.92;;;;;;;-4.02;55.19;99368.28;5070487;28;20096;-70
2022/01/02 09:28:40;;;;;;;3.38;1.63;;;;;;;-3.98;56.45;99367.28;5070614;28;20071;-69
2022/01/02 09:31:24;;;;;;;3.83;1.50;;;;;;;-3.92;55.98;99369.72;5070516;28;20098;-72
2022/01/02 09:34:08;;;;;;;2.17;1.30;;;;;;;-3.84;55.47;99369.50;5069790;28;20035;-73
2022/01/02 09:36:52;;;;;;;3.63;1.73;;;;;;;-3.85;55.83;99348.63;5075399;28;20415;-74
2022/01/02 09:39:36;;;;;;;4.47;1.70;;;;;;;-3.71;55.47;99356.91;5074462;28;20036;-72
2022/01/02 09:42:20;;;;;;;2.80;2.00;;;;;;;-3.68;54.98;99362.06;5073452;28;20119;-70
2022/01/02 09:45:06;;;;;;;2.92;1.85;;;;;;;-3.64;55.52;99357.59;5073634;28;20035;-73
2022/01/02 09:47:51;;;;;;;4.18;1.92;;;;;;;-3.61;54.88;99352.28;5073903;28;20044;-67
2022/01/02 09:50:37;;;;;;;4.50;1.83;;;;;;;-3.56;55.12;99360.84;5073898;28;21483;-68
2022/01/02 09:53:22;;;;;;;5.43;1.80;;;;;;;-3.50;54.74;99351.94;5073254;28;20111;-70
2022/01/02 09:55:49;;;;;;;3.47;2.13;;;;;;;-3.45;54.53;99365.75;5076331;28;20086;-69
2022/01/02 09:58:14;;;;;;;3.90;1.70;;;;;;;-3.53;54.59;99333.72;5092918;28;20040;-69
2022/01/02 10:00:44;;;;;;;3.22;1.90;;;;;;;-3.33;54.55;99354.91;5093033;28;20043;-69
2022/01/02 10:03:10;;;;;;;5.57;1.90;;;;;;;-3.47;54.43;99359.69;5093350;28;20040;-69
2022/01/02 10:05:48;;;;;;;3.47;1.80;;;;;;;-3.44;55.14;99372.69;5083673;28;20024;-68
2022/01/02 10:08:28;;;;;;;4.35;2.28;;;;;;;-3.44;54.83;99380.53;5071291;28;20036;-73
2022/01/02 10:11:08;;;;;;;3.45;1.80;;;;;;;-3.42;54.54;99383.97;5071182;28;20103;-72
2022/01/02 10:13:43;;;;;;;3.35;1.88;;;;;;;-3.52;54.80;99380.78;5070973;28;20070;-68
2022/01/02 10:16:30;;;;;;;3.33;1.83;;;;;;;-3.73;54.61;99357.88;5071983;28;20028;-68
2022/01/02 10:18:56;;;;;;;4.15;2.20;;;;;;;-3.71;54.57;99390.94;5071578;28;20071;-68
2022/01/02 10:21:39;;;;;;;3.03;1.60;;;;;;;-3.65;54.87;99392.53;5072326;28;20059;-69
2022/01/02 10:24:15;;;;;;;2.85;1.80;;;;;;;-3.67;54.73;99389.94;5073474;28;20032;-69
2022/01/02 10:27:01;;;;;;;3.55;1.80;;;;;;;-3.77;54.06;99398.97;5074074;28;20036;-67
2022/01/02 10:29:37;;;;;;;2.85;2.00;;;;;;;-3.79;54.40;99391.16;5073320;28;20097;-68
2022/01/02 10:32:27;;;;;;;3.80;1.60;;;;;;;-3.74;54.19;99391.03;5072620;28;20250;-68
2022/01/02 10:35:05;;;;;;;2.50;1.52;;;;;;;-3.77;53.63;99398.97;5072985;28;20029;-69
2022/01/02 10:37:31;;;;;;;2.97;1.27;;;;;;;-3.70;54.47;99400.50;5073218;28;20028;-69
2022/01/02 10:39:56;;;;;;;3.75;1.60;;;;;;;-3.69;54.10;99396.13;5071670;28;20047;-69
2022/01/02 10:42:23;;;;;;;3.80;1.75;;;;;;;-3.75;53.94;99386.69;5072418;28;20175;-69
2022/01/02 10:44:49;;;;;;;2.92;1.67;;;;;;;-3.59;53.50;99408.03;5072925;28;20028;-68
2022/01/02 10:47:15;;;;;;;6.35;1.75;;;;;;;-3.58;53.38;99424.59;5072893;28;20025;-68
2022/01/02 10:49:58;;;;;;;3.15;1.67;;;;;;;-3.62;53.74;99413.34;5072254;28;20053;-68
2022/01/02 10:52:32;;;;;;;2.63;1.33;;;;;;;-3.75;53.88;99418.09;5072374;28;20044;-70
2022/01/02 10:55:12;;;;;;;4.50;1.70;;;;;;;-3.79;53.29;99426.94;5072357;28;20059;-69
2022/01/02 10:57:39;;;;;;;3.88;1.52;;;;;;;-3.79;53.60;99426.94;5072425;28;20028;-68
2022/01/02 11:00:06;;;;;;;3.03;1.55;;;;;;;-4.05;53.98;99420.66;5072191;28;20041;-69
2022/01/02 11:02:32;;;;;;;4.47;1.35;;;;;;;-4.16;53.79;99417.47;5072068;28;20424;-68
2022/01/02 11:05:06;;;;;;;3.15;1.40;;;;;;;-4.03;54.08;99431.94;5072279;28;20032;-68
2022/01/02 11:07:45;;;;;;;3.07;1.87;;;;;;;-3.95;54.64;99437.81;5072073;28;20028;-68
2022/01/02 11:10:17;;;;;;;4.82;2.00;;;;;;;-3.90;53.80;99435.06;5072279;28;20027;-69
2022/01/02 11:12:43;;;;;;;4.68;1.60;;;;;;;-3.88;53.66;99435.88;5072528;28;20027;-68
2022/01/02 11:15:17;;;;;;;2.35;1.80;;;;;;;-3.89;53.49;99432.41;5071835;28;20339;-68
2022/01/02 11:17:44;;;;;;;4.43;1.52;;;;;;;-3.92;53.64;99447.34;5072199;28;20039;-70
2022/01/02 11:20:12;;;;;;;3.95;1.63;;;;;;;-3.93;53.44;99425.53;5072224;28;20031;-69
2022/01/02 11:23:03;;;;;;;2.85;1.60;;;;;;;-4.01;54.11;99406.59;5072016;28;20039;-69
2022/01/02 11:25:50;;;;;;;2.33;1.50;;;;;;;-3.98;53.66;99426.56;5072180;28;20028;-70
2022/01/02 11:28:35;;;;;;;4.07;1.40;;;;;;;-4.09;53.80;99424.25;5072189;28;20441;-69
2022/01/02 11:31:01;;;;;;;1.52;1.15;;;;;;;-4.05;53.80;99415.44;5071388;28;20056;-70
2022/01/02 11:33:53;;;;;;;3.38;1.73;;;;;;;-4.06;53.88;99418.94;5071955;28;20393;-70
2022/01/02 11:36:21;;;;;;;3.10;1.90;;;;;;;-4.21;53.62;99423.69;5068838;28;20098;-68
2022/01/02 11:38:59;;;;;;;4.70;1.80;;;;;;;-4.39;54.36;99400.63;5071674;28;20386;-69
2022/01/02 11:41:46;;;;;;;3.75;2.00;;;;;;;-4.30;55.17;99423.06;5069958;28;20025;-70
2022/01/02 11:44:22;;;;;;;2.53;1.50;;;;;;;-4.32;54.84;99418.72;5072304;28;20143;-68
2022/01/02 11:46:56;;;;;;;3.38;1.70;;;;;;;-4.37;54.63;99398.81;5071603;28;20025;-68
2022/01/02 11:49:39;;;;;;;4.25;1.80;;;;;;;-4.25;54.55;99416.81;5071591;28;20044;-68
2022/01/02 11:52:09;;;;;;;3.70;1.50;;;;;;;-4.22;54.44;99418.47;5071939;28;20398;-69
2022/01/02 11:54:46;;;;;;;3.13;1.80;;;;;;;-4.34;54.45;99394.38;5071707;28;20040;-68
2022/01/02 11:57:12;;;;;;;3.42;1.80;;;;;;;-4.11;54.58;99426.91;5070763;28;20047;-69
2022/01/02 11:59:40;;;;;;;6.75;1.70;;;;;;;-4.15;54.55;99429.63;5070540;28;20477;-68
2022/01/02 12:02:18;;;;;;;5.05;1.70;;;;;;;-4.10;55.36;99426.00;5071244;28;20032;-69
2022/01/02 12:07:33;;;;;;;4.05;1.80;;;;;;;-4.13;55.06;99422.59;5071117;28;20040;-68
2022/01/02 12:10:14;;;;;;;4.38;1.90;;;;;;;-4.21;55.15;99444.59;5071105;28;20543;-68
2022/01/02 12:15:24;;;;;;;2.92;1.63;;;;;;;-4.35;55.06;99431.00;5071413;28;20124;-70
2022/01/02 12:18:24;;;;;;;3.10;1.50;;;;;;;-4.15;55.46;99450.56;5070865;28;20160;-68
2022/01/02 12:20:49;;;;;;;3.40;1.95;;;;;;;-4.27;54.26;99442.16;5071477;28;20086;-69
2022/01/02 12:23:33;;;;;;;2.92;1.63;;;;;;;-4.40;54.99;99445.94;5071641;28;20033;-68
2022/01/02 12:26:07;;;;;;;3.05;1.88;;;;;;;-4.45;54.63;99437.38;5070911;28;20040;-68
2022/01/02 12:28:40;;;;;;;4.28;1.80;;;;;;;-4.44;54.63;99444.31;5071159;28;20032;-69
2022/01/02 12:31:07;;;;;;;4.10;2.00;;;;;;;-4.54;54.88;99434.13;5071404;28;20478;-69
2022/01/02 12:33:35;;;;;;;4.03;2.15;;;;;;;-4.50;54.54;99445.31;5071596;28;20063;-70
2022/01/02 12:36:18;;;;;;;4.28;1.98;;;;;;;-4.47;54.30;99461.78;5069445;28;20033;-70
2022/01/02 12:38:47;;;;;;;2.88;1.92;;;;;;;-4.54;55.06;99449.78;5069807;28;20363;-68
2022/01/02 12:41:14;;;;;;;4.38;1.90;;;;;;;-4.64;54.69;99453.50;5071482;28;20036;-69
2022/01/02 12:43:41;;;;;;;3.53;1.70;;;;;;;-4.65;55.32;99462.25;5070971;28;20485;-69
2022/01/02 12:46:07;;;;;;;4.85;2.00;;;;;;;-4.65;54.65;99462.25;5070745;28;20032;-70
2022/01/02 12:48:33;;;;;;;2.55;1.67;;;;;;;-4.69;54.87;99461.47;5070581;28;20524;-68
2022/01/02 12:51:09;;;;;;;4.07;1.80;;;;;;;-4.80;55.35;99435.59;5069619;28;20036;-70
2022/01/02 12:53:35;;;;;;;1.98;1.55;;;;;;;-4.71;55.16;99467.63;5070990;28;20099;-70
2022/01/02 12:56:00;;;;;;;2.47;1.48;;;;;;;-4.69;55.67;99471.94;5070518;28;20104;-70
2022/01/02 12:58:26;;;;;;;3.05;1.92;;;;;;;-4.67;55.52;99464.91;5070829;28;20047;-69